createdAt,value
2024-03-22T00:00:34.861Z,73.61
2024-03-22T00:01:34.799Z,73.64
2024-03-22T00:02:35.649Z,73.23
2024-03-22T00:03:34.787Z,73.78
2024-03-22T00:04:34.772Z,75.14
2024-03-22T00:05:34.801Z,74.94
2024-03-22T00:06:34.782Z,74.97
2024-03-22T00:07:34.746Z,75.45
2024-03-22T00:08:34.835Z,75.79
2024-03-22T00:09:34.752Z,75.99
2024-03-22T00:10:34.775Z,76.03
2024-03-22T00:11:34.847Z,76.89
2024-03-22T00:12:34.757Z,77.61
2024-03-22T00:13:34.713Z,77.81
2024-03-22T00:14:36.826Z,77.71
2024-03-22T00:15:35.709Z,78.02
2024-03-22T00:16:34.733Z,78.12
2024-03-22T00:17:34.736Z,77.71
2024-03-22T00:18:34.714Z,78.02
2024-03-22T00:19:34.740Z,77.87
2024-03-22T00:20:36.390Z,77.81
2024-03-22T00:21:35.738Z,77.81
2024-03-22T00:22:34.680Z,77.91
2024-03-22T00:23:34.688Z,77.81
2024-03-22T00:24:34.668Z,77.91
2024-03-22T00:25:34.683Z,78.36
2024-03-22T00:26:34.678Z,78.22
2024-03-22T00:27:34.652Z,77.87
2024-03-22T00:28:34.634Z,77.47
2024-03-22T00:29:34.664Z,77.47
2024-03-22T00:30:34.645Z,77.47
2024-03-22T00:31:34.619Z,77.06
2024-03-22T00:32:34.631Z,77.16
2024-03-22T00:33:34.574Z,76.81
2024-03-22T00:34:34.598Z,76.61
2024-03-22T00:35:34.615Z,76.51
2024-03-22T00:36:34.634Z,76.03
2024-03-22T00:37:34.573Z,76.92
2024-03-22T00:38:34.591Z,76.20
2024-03-22T00:39:34.589Z,76.20
2024-03-22T00:40:34.533Z,76.40
2024-03-22T00:41:34.570Z,76.51
2024-03-22T00:42:34.520Z,76.51
2024-03-22T00:43:34.534Z,76.31
2024-03-22T00:44:34.531Z,76.31
2024-03-22T00:45:34.530Z,76.20
2024-03-22T00:46:34.536Z,76.10
2024-03-22T00:47:34.569Z,76.20
2024-03-22T00:48:34.504Z,76.40
2024-03-22T00:49:34.518Z,76.20
2024-03-22T00:50:34.531Z,76.61
2024-03-22T00:51:34.536Z,76.40
2024-03-22T00:52:34.480Z,76.24
2024-03-22T00:53:34.562Z,76.72
2024-03-22T00:54:34.470Z,76.95
2024-03-22T00:55:34.549Z,76.92
2024-03-22T00:56:34.479Z,76.85
2024-03-22T00:57:34.445Z,76.58
2024-03-22T00:58:34.479Z,77.29
2024-03-22T00:59:34.540Z,77.77
2024-03-22T01:00:34.456Z,77.40
2024-03-22T01:01:34.476Z,77.71
2024-03-22T01:02:34.441Z,78.02
2024-03-22T01:03:34.396Z,77.87
2024-03-22T01:04:34.413Z,77.81
2024-03-22T01:05:34.404Z,78.22
2024-03-22T01:06:34.466Z,77.81
2024-03-22T01:07:34.390Z,78.12
2024-03-22T01:08:34.406Z,77.87
2024-03-22T01:09:34.388Z,78.02
2024-03-22T01:10:34.360Z,78.22
2024-03-22T01:11:34.441Z,78.32
2024-03-22T01:12:34.390Z,78.32
2024-03-22T01:13:34.344Z,78.32
2024-03-22T01:14:34.354Z,78.22
2024-03-22T01:15:34.366Z,78.42
2024-03-22T01:16:34.342Z,78.32
2024-03-22T01:17:34.382Z,78.12
2024-03-22T01:18:34.375Z,78.32
2024-03-22T01:19:34.339Z,77.87
2024-03-22T01:20:34.409Z,77.98
2024-03-22T01:21:34.362Z,77.67
2024-03-22T01:22:34.320Z,77.87
2024-03-22T01:23:34.305Z,77.47
2024-03-22T01:24:35.323Z,77.50
2024-03-22T01:25:35.313Z,78.02
2024-03-22T01:26:34.322Z,77.98
2024-03-22T01:27:34.269Z,78.02
2024-03-22T01:28:34.298Z,77.81
2024-03-22T01:29:34.284Z,78.46
2024-03-22T01:30:34.236Z,78.77
2024-03-22T01:31:34.248Z,79.14
2024-03-22T01:32:34.260Z,79.04
2024-03-22T01:33:34.277Z,79.04
2024-03-22T01:34:34.228Z,78.63
2024-03-22T01:35:34.214Z,78.97
2024-03-22T01:36:34.211Z,78.87
2024-03-22T01:37:34.208Z,78.77
2024-03-22T01:38:34.255Z,78.97
2024-03-22T01:39:34.202Z,79.28
2024-03-22T01:40:34.347Z,79.18
2024-03-22T01:41:34.226Z,79.49
2024-03-22T01:42:34.193Z,79.08
2024-03-22T01:43:34.287Z,79.08
2024-03-22T01:44:34.209Z,78.56
2024-03-22T01:45:34.165Z,79.04
2024-03-22T01:46:34.162Z,78.83
2024-03-22T01:47:34.197Z,78.77
2024-03-22T01:48:34.121Z,79.28
2024-03-22T01:49:34.188Z,78.94
2024-03-22T01:50:34.121Z,78.94
2024-03-22T01:51:34.124Z,78.42
2024-03-22T01:52:34.113Z,77.98
2024-03-22T01:53:34.277Z,77.57
2024-03-22T01:54:34.115Z,77.77
2024-03-22T01:55:34.101Z,77.36
2024-03-22T01:56:34.098Z,77.81
2024-03-22T01:57:34.065Z,77.77
2024-03-22T01:58:34.105Z,77.87
2024-03-22T01:59:34.117Z,77.67
2024-03-22T02:00:34.107Z,77.26
2024-03-22T02:01:34.052Z,77.33
2024-03-22T02:02:34.083Z,76.85
2024-03-22T02:03:34.027Z,77.40
2024-03-22T02:04:34.048Z,77.81
2024-03-22T02:05:34.063Z,77.91
2024-03-22T02:06:34.032Z,78.22
2024-03-22T02:07:34.031Z,78.46
2024-03-22T02:08:34.053Z,78.87
2024-03-22T02:09:34.021Z,78.46
2024-03-22T02:10:34.033Z,78.67
2024-03-22T02:11:33.991Z,78.32
2024-03-22T02:12:34.006Z,78.63
2024-03-22T02:13:34.010Z,77.71
2024-03-22T02:14:34.004Z,77.98
2024-03-22T02:15:33.971Z,77.77
2024-03-22T02:16:34.003Z,77.47
2024-03-22T02:17:33.991Z,77.67
2024-03-22T02:18:33.977Z,77.06
2024-03-22T02:19:33.950Z,76.85
2024-03-22T02:20:33.972Z,76.24
2024-03-22T02:21:33.939Z,76.24
2024-03-22T02:22:33.975Z,77.16
2024-03-22T02:23:34.016Z,76.89
2024-03-22T02:24:33.949Z,76.37
2024-03-22T02:25:33.934Z,77.54
2024-03-22T02:26:34.034Z,77.54
2024-03-22T02:27:33.897Z,77.84
2024-03-22T02:28:33.888Z,77.95
2024-03-22T02:29:33.908Z,78.05
2024-03-22T02:30:33.912Z,78.05
2024-03-22T02:31:34.466Z,77.84
2024-03-22T02:32:33.925Z,77.91
2024-03-22T02:33:33.869Z,77.84
2024-03-22T02:34:39.051Z,77.71
2024-03-22T02:35:34.918Z,77.71
2024-03-22T02:36:33.858Z,77.40
2024-03-22T02:37:33.844Z,77.71
2024-03-22T02:38:33.831Z,77.50
2024-03-22T02:39:33.837Z,77.50
2024-03-22T02:40:33.848Z,77.61
2024-03-22T02:41:33.820Z,77.33
2024-03-22T02:42:33.952Z,77.64
2024-03-22T02:43:33.792Z,78.05
2024-03-22T02:44:33.806Z,77.84
2024-03-22T02:45:33.788Z,77.84
2024-03-22T02:46:33.817Z,77.47
2024-03-22T02:47:33.797Z,77.88
2024-03-22T02:48:33.770Z,78.39
2024-03-22T02:49:33.763Z,78.70
2024-03-22T02:50:33.794Z,78.50
2024-03-22T02:51:33.750Z,78.19
2024-03-22T02:52:33.748Z,77.95
2024-03-22T02:53:33.782Z,77.95
2024-03-22T02:54:33.725Z,77.84
2024-03-22T02:55:33.749Z,77.74
2024-03-22T02:56:33.757Z,76.92
2024-03-22T02:57:33.833Z,77.95
2024-03-22T02:58:33.741Z,77.33
2024-03-22T02:59:33.744Z,77.33
2024-03-22T03:00:33.697Z,77.84
2024-03-22T03:01:33.704Z,77.54
2024-03-22T03:02:33.682Z,76.92
2024-03-22T03:03:33.689Z,77.17
2024-03-22T03:04:33.714Z,77.58
2024-03-22T03:05:33.677Z,77.26
2024-03-22T03:06:33.690Z,77.23
2024-03-22T03:07:33.643Z,77.58
2024-03-22T03:08:33.674Z,77.58
2024-03-22T03:09:33.675Z,77.61
2024-03-22T03:10:33.652Z,77.61
2024-03-22T03:11:33.622Z,77.61
2024-03-22T03:12:33.613Z,77.95
2024-03-22T03:13:33.621Z,78.92
2024-03-22T03:14:33.647Z,79.02
2024-03-22T03:15:33.600Z,79.36
2024-03-22T03:16:33.596Z,79.36
2024-03-22T03:17:33.593Z,79.43
2024-03-22T03:18:33.616Z,79.63
2024-03-22T03:19:33.629Z,79.19
2024-03-22T03:20:33.571Z,79.29
2024-03-22T03:21:33.596Z,78.92
2024-03-22T03:22:33.622Z,79.33
2024-03-22T03:23:33.557Z,79.33
2024-03-22T03:24:33.585Z,79.16
2024-03-22T03:25:33.553Z,79.33
2024-03-22T03:26:33.541Z,79.43
2024-03-22T03:27:33.552Z,79.08
2024-03-22T03:28:33.540Z,79.29
2024-03-22T03:29:33.561Z,79.39
2024-03-22T03:30:33.513Z,79.29
2024-03-22T03:31:33.524Z,79.15
2024-03-22T03:32:33.554Z,79.25
2024-03-22T03:33:33.521Z,78.91
2024-03-22T03:34:33.492Z,78.36
2024-03-22T03:35:33.481Z,78.16
2024-03-22T03:36:33.501Z,77.95
2024-03-22T03:37:33.637Z,77.95
2024-03-22T03:38:33.484Z,77.78
2024-03-22T03:39:34.447Z,77.13
2024-03-22T03:40:33.460Z,77.74
2024-03-22T03:41:33.468Z,77.78
2024-03-22T03:42:33.496Z,78.16
2024-03-22T03:43:33.448Z,78.05
2024-03-22T03:44:33.426Z,77.64
2024-03-22T03:45:33.489Z,78.05
2024-03-22T03:46:33.426Z,77.91
2024-03-22T03:47:33.424Z,77.74
2024-03-22T03:48:33.416Z,78.81
2024-03-22T03:49:33.429Z,79.08
2024-03-22T03:50:33.402Z,79.18
2024-03-22T03:51:33.421Z,78.77
2024-03-22T03:52:33.414Z,77.64
2024-03-22T03:53:33.371Z,77.95
2024-03-22T03:54:33.368Z,77.58
2024-03-22T03:55:33.400Z,77.78
2024-03-22T03:56:33.387Z,77.81
2024-03-22T03:57:33.397Z,78.29
2024-03-22T03:58:33.375Z,77.88
2024-03-22T03:59:33.352Z,77.88
2024-03-22T04:00:33.339Z,77.88
2024-03-22T04:01:33.373Z,78.39
2024-03-22T04:02:33.355Z,78.36
2024-03-22T04:03:33.320Z,78.25
2024-03-22T04:04:33.326Z,78.05
2024-03-22T04:05:33.344Z,78.05
2024-03-22T04:06:33.289Z,77.84
2024-03-22T04:07:33.287Z,77.84
2024-03-22T04:08:33.310Z,77.95
2024-03-22T04:09:33.306Z,78.46
2024-03-22T04:10:33.313Z,78.36
2024-03-22T04:11:33.320Z,78.97
2024-03-22T04:12:33.290Z,78.94
2024-03-22T04:13:33.294Z,79.22
2024-03-22T04:14:33.239Z,79.36
2024-03-22T04:15:33.245Z,79.25
2024-03-22T04:16:33.243Z,79.52
2024-03-22T04:17:33.261Z,79.22
2024-03-22T04:18:33.232Z,79.11
2024-03-22T04:19:33.232Z,79.42
2024-03-22T04:20:33.237Z,79.32
2024-03-22T04:21:33.222Z,79.22
2024-03-22T04:22:33.212Z,79.22
2024-03-22T04:23:33.176Z,79.77
2024-03-22T04:24:33.188Z,79.87
2024-03-22T04:25:33.184Z,79.52
2024-03-22T04:26:33.177Z,79.46
2024-03-22T04:27:33.173Z,79.97
2024-03-22T04:28:33.139Z,80.32
2024-03-22T04:29:33.160Z,80.79
2024-03-22T04:30:33.292Z,80.69
2024-03-22T04:31:33.134Z,80.90
2024-03-22T04:32:33.170Z,80.38
2024-03-22T04:33:33.226Z,80.35
2024-03-22T04:34:33.135Z,79.90
2024-03-22T04:35:33.106Z,79.32
2024-03-22T04:36:33.092Z,79.38
2024-03-22T04:37:33.183Z,79.08
2024-03-22T04:38:33.118Z,78.94
2024-03-22T04:39:33.104Z,78.53
2024-03-22T04:40:33.084Z,78.67
2024-03-22T04:41:33.083Z,78.63
2024-03-22T04:42:33.112Z,78.74
2024-03-22T04:43:33.095Z,78.74
2024-03-22T04:44:33.060Z,78.67
2024-03-22T04:45:33.042Z,78.97
2024-03-22T04:46:33.050Z,79.28
2024-03-22T04:47:33.242Z,79.22
2024-03-22T04:48:33.060Z,80.90
2024-03-22T04:49:33.028Z,80.76
2024-03-22T04:50:33.020Z,80.76
2024-03-22T04:51:33.011Z,80.90
2024-03-22T04:52:33.012Z,80.86
2024-03-22T04:53:33.008Z,80.90
2024-03-22T04:54:32.988Z,81.41
2024-03-22T04:55:32.980Z,81.06
2024-03-22T04:56:32.979Z,80.65
2024-03-22T04:57:32.989Z,80.35
2024-03-22T04:58:33.018Z,80.41
2024-03-22T04:59:33.045Z,80.31
2024-03-22T05:00:32.942Z,80.82
2024-03-22T05:01:32.943Z,79.80
2024-03-22T05:02:32.970Z,80.17
2024-03-22T05:03:32.928Z,79.96
2024-03-22T05:04:33.553Z,79.45
2024-03-22T05:05:32.955Z,79.08
2024-03-22T05:06:32.963Z,79.80
2024-03-22T05:07:32.945Z,79.55
2024-03-22T05:08:32.922Z,79.45
2024-03-22T05:09:32.905Z,79.04
2024-03-22T05:10:32.907Z,79.04
2024-03-22T05:11:32.875Z,78.63
2024-03-22T05:12:33.645Z,79.14
2024-03-22T05:13:32.866Z,78.80
2024-03-22T05:14:32.882Z,78.53
2024-03-22T05:15:32.888Z,78.63
2024-03-22T05:16:32.853Z,78.74
2024-03-22T05:17:33.861Z,78.83
2024-03-22T05:18:32.885Z,79.14
2024-03-22T05:19:32.873Z,78.90
2024-03-22T05:20:32.905Z,78.70
2024-03-22T05:21:32.833Z,78.35
2024-03-22T05:22:32.843Z,78.35
2024-03-22T05:23:32.840Z,78.08
2024-03-22T05:24:32.822Z,78.25
2024-03-22T05:25:32.811Z,78.15
2024-03-22T05:26:32.827Z,78.05
2024-03-22T05:27:32.787Z,78.19
2024-03-22T05:28:32.782Z,78.28
2024-03-22T05:29:32.786Z,78.94
2024-03-22T05:30:32.776Z,79.00
2024-03-22T05:31:32.808Z,79.00
2024-03-22T05:32:32.765Z,78.90
2024-03-22T05:33:32.752Z,78.90
2024-03-22T05:34:32.774Z,79.75
2024-03-22T05:35:32.738Z,79.75
2024-03-22T05:36:32.829Z,79.62
2024-03-22T05:37:32.727Z,79.75
2024-03-22T05:38:32.763Z,79.72
2024-03-22T05:39:32.747Z,79.62
2024-03-22T05:40:32.720Z,79.93
2024-03-22T05:41:32.719Z,79.89
2024-03-22T05:42:32.739Z,79.48
2024-03-22T05:43:32.688Z,79.54
2024-03-22T05:44:32.732Z,79.34
2024-03-22T05:45:32.698Z,79.24
2024-03-22T05:46:32.742Z,79.30
2024-03-22T05:47:38.237Z,81.86
2024-03-22T05:49:02.147Z,80.74
2024-03-22T05:49:32.753Z,79.91
2024-03-22T05:50:32.735Z,80.39
2024-03-22T05:51:32.670Z,80.80
2024-03-22T05:52:32.682Z,81.62
2024-03-22T05:53:32.628Z,81.68
2024-03-22T05:54:32.653Z,81.07
2024-03-22T05:55:32.774Z,81.17
2024-03-22T05:56:32.736Z,81.31
2024-03-22T05:57:32.675Z,81.01
2024-03-22T05:58:33.632Z,81.38
2024-03-22T05:59:32.656Z,80.83
2024-03-22T06:00:32.668Z,80.42
2024-03-22T06:01:32.605Z,80.52
2024-03-22T06:02:32.575Z,80.56
2024-03-22T06:03:34.040Z,80.42
2024-03-22T06:04:33.577Z,79.60
2024-03-22T06:05:32.594Z,79.57
2024-03-22T06:06:32.592Z,79.36
2024-03-22T06:07:32.563Z,79.52
2024-03-22T06:08:32.561Z,78.85
2024-03-22T06:09:34.207Z,78.20
2024-03-22T06:10:32.545Z,78.41
2024-03-22T06:11:32.523Z,78.44
2024-03-22T06:12:32.526Z,78.75
2024-03-22T06:13:32.548Z,78.54
2024-03-22T06:14:32.519Z,78.85
2024-03-22T06:15:32.507Z,79.19
2024-03-22T06:16:32.503Z,79.36
2024-03-22T06:17:32.486Z,78.64
2024-03-22T06:18:33.137Z,78.41
2024-03-22T06:19:32.488Z,78.06
2024-03-22T06:20:32.475Z,77.89
2024-03-22T06:21:32.474Z,77.48
2024-03-22T06:22:32.515Z,77.65
2024-03-22T06:23:32.498Z,77.59
2024-03-22T06:24:32.457Z,78.20
2024-03-22T06:25:32.440Z,77.89
2024-03-22T06:26:38.135Z,77.96
2024-03-22T06:27:33.436Z,77.75
2024-03-22T06:28:32.462Z,77.34
2024-03-22T06:29:32.446Z,77.45
2024-03-22T06:30:32.428Z,76.80
2024-03-22T06:31:32.422Z,76.63
2024-03-22T06:32:32.408Z,77.21
2024-03-22T06:33:32.393Z,76.66
2024-03-22T06:34:32.427Z,75.88
2024-03-22T06:35:34.123Z,76.25
2024-03-22T06:36:32.407Z,76.59
2024-03-22T06:37:32.380Z,75.98
2024-03-22T06:38:32.421Z,75.98
2024-03-22T06:39:32.417Z,75.64
2024-03-22T06:40:32.386Z,75.13
2024-03-22T06:41:32.379Z,75.54
2024-03-22T06:42:32.355Z,75.34
2024-03-22T06:43:32.354Z,75.85
2024-03-22T06:44:32.371Z,75.10
2024-03-22T06:45:32.330Z,75.51
2024-03-22T06:46:32.357Z,76.12
2024-03-22T06:47:33.055Z,75.23
2024-03-22T06:48:32.329Z,75.74
2024-03-22T06:49:32.370Z,75.85
2024-03-22T06:50:32.302Z,75.95
2024-03-22T06:51:32.310Z,76.25
2024-03-22T06:52:32.347Z,76.70
2024-03-22T06:53:32.330Z,77.21
2024-03-22T06:54:32.318Z,77.41
2024-03-22T06:55:32.321Z,77.86
2024-03-22T06:56:32.291Z,77.51
2024-03-22T06:57:32.273Z,77.21
2024-03-22T06:58:32.268Z,77.00
2024-03-22T06:59:32.259Z,77.00
2024-03-22T07:00:32.277Z,76.46
2024-03-22T07:01:32.243Z,76.15
2024-03-22T07:02:32.249Z,75.85
2024-03-22T07:03:32.257Z,76.01
2024-03-22T07:04:32.247Z,75.54
2024-03-22T07:05:32.252Z,75.95
2024-03-22T07:06:32.223Z,75.85
2024-03-22T07:07:32.211Z,75.64
2024-03-22T07:08:32.214Z,76.56
2024-03-22T07:09:32.190Z,76.56
2024-03-22T07:10:32.201Z,75.81
2024-03-22T07:11:32.303Z,76.42
2024-03-22T07:12:32.200Z,76.15
2024-03-22T07:13:32.164Z,76.01
2024-03-22T07:14:34.262Z,75.81
2024-03-22T07:15:33.160Z,76.42
2024-03-22T07:16:32.188Z,76.12
2024-03-22T07:17:32.183Z,75.92
2024-03-22T07:18:32.151Z,75.98
2024-03-22T07:19:32.159Z,75.16
2024-03-22T07:20:32.137Z,75.16
2024-03-22T07:21:32.161Z,75.16
2024-03-22T07:22:32.153Z,75.02
2024-03-22T07:23:32.134Z,74.21
2024-03-22T07:24:32.104Z,74.62
2024-03-22T07:25:32.115Z,74.32
2024-03-22T07:26:32.128Z,75.02
2024-03-22T07:27:32.093Z,74.32
2024-03-22T07:28:32.097Z,75.02
2024-03-22T07:29:32.102Z,74.21
2024-03-22T07:30:32.081Z,74.08
2024-03-22T07:31:32.110Z,74.21
2024-03-22T07:32:33.144Z,73.57
2024-03-22T07:33:32.062Z,74.08
2024-03-22T07:34:32.076Z,72.92
2024-03-22T07:35:32.478Z,73.06
2024-03-22T07:36:32.040Z,73.67
2024-03-22T07:37:32.120Z,73.23
2024-03-22T07:38:32.023Z,72.92
2024-03-22T07:39:32.044Z,73.71
2024-03-22T07:40:32.014Z,73.87
2024-03-22T07:41:32.067Z,74.62
2024-03-22T07:42:32.014Z,73.80
2024-03-22T07:43:31.997Z,73.40
2024-03-22T07:44:31.982Z,74.82
2024-03-22T07:45:32.002Z,75.33
2024-03-22T07:46:31.985Z,74.93
2024-03-22T07:47:32.087Z,74.86
2024-03-22T07:48:31.996Z,74.18
2024-03-22T07:49:31.985Z,73.87
2024-03-22T07:50:31.982Z,74.08
2024-03-22T07:51:31.946Z,73.57
2024-03-22T07:52:31.947Z,72.62
2024-03-22T07:53:32.015Z,73.33
2024-03-22T07:54:31.944Z,73.30
2024-03-22T07:55:31.941Z,72.89
2024-03-22T07:56:31.938Z,72.78
2024-03-22T07:57:31.961Z,72.69
2024-03-22T07:58:31.942Z,72.58
2024-03-22T07:59:31.909Z,72.89
2024-03-22T08:00:31.892Z,72.48
2024-03-22T08:01:31.931Z,72.38
2024-03-22T08:02:31.915Z,72.14
2024-03-22T08:03:31.882Z,72.25
2024-03-22T08:04:31.889Z,72.75
2024-03-22T08:05:31.870Z,71.91
2024-03-22T08:06:31.870Z,71.50
2024-03-22T08:07:31.853Z,71.06
2024-03-22T08:08:31.847Z,71.16
2024-03-22T08:09:31.841Z,70.99
2024-03-22T08:10:31.817Z,71.30
2024-03-22T08:11:32.822Z,71.50
2024-03-22T08:12:31.837Z,71.70
2024-03-22T08:13:31.822Z,71.67
2024-03-22T08:14:31.874Z,70.99
2024-03-22T08:15:31.810Z,71.64
2024-03-22T08:16:31.826Z,71.64
2024-03-22T08:17:31.786Z,72.58
2024-03-22T08:18:31.758Z,72.52
2024-03-22T08:19:31.832Z,72.11
2024-03-22T08:20:31.782Z,71.53
2024-03-22T08:21:31.736Z,73.09
2024-03-22T08:22:31.752Z,71.53
2024-03-22T08:23:31.735Z,71.40
2024-03-22T08:24:31.737Z,72.75
2024-03-22T08:25:31.723Z,71.60
2024-03-22T08:26:31.743Z,71.57
2024-03-22T08:27:39.738Z,71.16
2024-03-22T08:28:37.701Z,70.39
2024-03-22T08:29:33.764Z,69.03
2024-03-22T08:30:31.826Z,69.07
2024-03-22T08:31:31.723Z,69.81
2024-03-22T08:32:31.731Z,70.18
2024-03-22T08:33:31.698Z,69.24
2024-03-22T08:34:32.552Z,67.82
2024-03-22T08:35:31.700Z,66.58
2024-03-22T08:36:32.659Z,66.81
2024-03-22T08:37:31.627Z,66.88
2024-03-22T08:38:31.663Z,65.97
2024-03-22T08:39:31.673Z,66.50
2024-03-22T08:40:31.646Z,66.78
2024-03-22T08:41:31.725Z,66.44
2024-03-22T08:42:31.628Z,66.21
2024-03-22T08:43:31.662Z,64.43
2024-03-22T08:44:31.589Z,61.82
2024-03-22T08:45:32.590Z,61.61
2024-03-22T08:46:31.753Z,60.55
2024-03-22T08:47:31.618Z,59.44
2024-03-22T08:48:31.591Z,59.39
2024-03-22T08:49:31.566Z,59.47
2024-03-22T08:50:32.399Z,61.08
2024-03-22T08:51:32.558Z,60.02
2024-03-22T08:52:31.586Z,59.84
2024-03-22T08:53:31.568Z,59.95
2024-03-22T08:54:31.597Z,59.46
2024-03-22T08:55:31.582Z,58.35
2024-03-22T08:56:31.567Z,60.17
2024-03-22T08:57:31.531Z,59.95
2024-03-22T08:58:31.522Z,58.61
2024-03-22T08:59:31.504Z,60.05
2024-03-22T09:00:31.630Z,60.48
2024-03-22T09:01:31.551Z,60.65
2024-03-22T09:02:32.388Z,59.95
2024-03-22T09:03:31.502Z,60.17
2024-03-22T09:04:31.555Z,60.91
2024-03-22T09:05:31.581Z,61.41
2024-03-22T09:06:31.568Z,61.65
2024-03-22T09:07:31.458Z,62.05
2024-03-22T09:08:31.542Z,63.09
2024-03-22T09:09:31.524Z,62.68
2024-03-22T09:10:31.466Z,63.29
2024-03-22T09:11:31.471Z,62.96
2024-03-22T09:12:31.477Z,61.72
2024-03-22T09:13:31.420Z,63.70
2024-03-22T09:14:31.414Z,64.20
2024-03-22T09:15:31.410Z,63.70
2024-03-22T09:16:31.924Z,63.67
2024-03-22T09:17:31.488Z,63.09
2024-03-22T09:18:31.368Z,63.26
2024-03-22T09:19:31.401Z,61.92
2024-03-22T09:20:31.398Z,62.45
2024-03-22T09:21:31.373Z,63.70
2024-03-22T09:22:31.348Z,64.16
2024-03-22T09:23:31.352Z,66.08
2024-03-22T09:24:31.434Z,65.14
2024-03-22T09:25:31.340Z,64.33
2024-03-22T09:26:31.353Z,63.36
2024-03-22T09:27:31.344Z,63.29
2024-03-22T09:28:31.351Z,65.04
2024-03-22T09:29:31.717Z,66.85
2024-03-22T09:30:38.640Z,67.39
2024-03-22T09:31:33.307Z,66.85
2024-03-22T09:32:31.349Z,66.85
2024-03-22T09:33:31.329Z,67.82
2024-03-22T09:34:32.017Z,67.99
2024-03-22T09:35:31.328Z,67.08
2024-03-22T09:36:31.281Z,67.93
2024-03-22T09:37:31.276Z,68.23
2024-03-22T09:38:31.255Z,67.49
2024-03-22T09:39:31.266Z,67.25
2024-03-22T09:40:31.261Z,66.78
2024-03-22T09:41:31.252Z,65.88
2024-03-22T09:42:31.257Z,66.64
2024-03-22T09:43:31.224Z,67.18
2024-03-22T09:44:31.216Z,68.73
2024-03-22T09:45:31.257Z,67.96
2024-03-22T09:46:31.229Z,67.86
2024-03-22T09:47:31.208Z,67.69
2024-03-22T09:48:31.266Z,68.19
2024-03-22T09:49:31.200Z,67.89
2024-03-22T09:50:31.216Z,68.63
2024-03-22T09:51:31.270Z,69.07
2024-03-22T09:52:31.234Z,68.97
2024-03-22T09:53:31.269Z,69.68
2024-03-22T09:54:31.220Z,69.44
2024-03-22T09:55:31.241Z,68.40
2024-03-22T09:56:32.400Z,68.30
2024-03-22T09:57:31.175Z,68.10
2024-03-22T09:58:31.346Z,67.89
2024-03-22T09:59:31.161Z,68.40
2024-03-22T10:00:31.128Z,68.16
2024-03-22T10:01:31.146Z,68.19
2024-03-22T10:02:31.168Z,68.30
2024-03-22T10:03:31.187Z,68.16
2024-03-22T10:04:31.117Z,68.40
2024-03-22T10:05:31.145Z,68.40
2024-03-22T10:06:31.116Z,68.40
2024-03-22T10:07:31.114Z,68.70
2024-03-22T10:08:31.145Z,68.50
2024-03-22T10:09:31.120Z,69.10
2024-03-22T10:10:32.013Z,68.90
2024-03-22T10:11:31.092Z,68.77
2024-03-22T10:12:31.104Z,68.37
2024-03-22T10:13:31.079Z,67.86
2024-03-22T10:14:33.923Z,68.43
2024-03-22T10:15:32.071Z,67.36
2024-03-22T10:16:32.092Z,66.72
2024-03-22T10:17:31.061Z,65.68
2024-03-22T10:18:31.025Z,65.15
2024-03-22T10:19:31.055Z,64.04
2024-03-22T10:20:31.022Z,64.75
2024-03-22T10:21:31.017Z,64.64
2024-03-22T10:22:31.034Z,63.70
2024-03-22T10:23:31.032Z,63.07
2024-03-22T10:24:31.025Z,63.07
2024-03-22T10:25:31.010Z,63.47
2024-03-22T10:26:31.025Z,63.47
2024-03-22T10:27:31.078Z,63.30
2024-03-22T10:28:31.009Z,64.34
2024-03-22T10:29:30.973Z,64.24
2024-03-22T10:30:30.993Z,64.31
2024-03-22T10:31:30.960Z,65.08
2024-03-22T10:32:31.095Z,65.08
2024-03-22T10:33:31.021Z,66.02
2024-03-22T10:34:30.973Z,65.71
2024-03-22T10:35:31.963Z,65.08
2024-03-22T10:36:30.978Z,66.55
2024-03-22T10:37:30.958Z,66.82
2024-03-22T10:38:30.983Z,67.52
2024-03-22T10:39:30.966Z,67.90
2024-03-22T10:40:31.062Z,66.42
2024-03-22T10:41:30.992Z,65.08
2024-03-22T10:42:30.964Z,65.35
2024-03-22T10:43:30.992Z,65.68
2024-03-22T10:44:30.990Z,64.84
2024-03-22T10:45:30.953Z,64.61
2024-03-22T10:46:30.954Z,64.51
2024-03-22T10:47:30.981Z,64.31
2024-03-22T10:48:30.925Z,63.37
2024-03-22T10:49:30.915Z,63.78
2024-03-22T10:50:30.896Z,63.75
2024-03-22T10:51:30.857Z,63.17
2024-03-22T10:52:30.817Z,63.45
2024-03-22T10:53:30.957Z,62.81
2024-03-22T10:54:30.815Z,61.07
2024-03-22T10:55:30.967Z,63.37
2024-03-22T10:56:30.810Z,64.25
2024-03-22T10:57:30.936Z,62.91
2024-03-22T10:58:30.788Z,63.42
2024-03-22T10:59:30.807Z,62.88
2024-03-22T11:00:30.798Z,61.30
2024-03-22T11:01:30.788Z,63.27
2024-03-22T11:02:30.793Z,62.71
2024-03-22T11:03:30.793Z,61.67
2024-03-22T11:04:30.752Z,61.27
2024-03-22T11:05:30.787Z,61.70
2024-03-22T11:06:30.744Z,61.47
2024-03-22T11:07:30.749Z,61.17
2024-03-22T11:08:30.774Z,61.01
2024-03-22T11:09:30.727Z,61.04
2024-03-22T11:10:30.694Z,61.27
2024-03-22T11:11:30.861Z,61.04
2024-03-22T11:12:30.706Z,60.57
2024-03-22T11:13:30.702Z,61.24
2024-03-22T11:14:30.697Z,60.51
2024-03-22T11:15:30.723Z,60.41
2024-03-22T11:16:30.703Z,59.98
2024-03-22T11:17:30.808Z,60.11
2024-03-22T11:18:30.652Z,60.51
2024-03-22T11:19:31.676Z,59.47
2024-03-22T11:20:30.761Z,59.47
2024-03-22T11:21:30.658Z,59.34
2024-03-22T11:22:30.682Z,58.34
2024-03-22T11:23:30.674Z,58.97
2024-03-22T11:24:30.626Z,59.05
2024-03-22T11:25:30.610Z,58.81
2024-03-22T11:26:30.633Z,58.09
2024-03-22T11:27:30.640Z,57.26
2024-03-22T11:28:30.639Z,57.28
2024-03-22T11:29:30.613Z,58.11
2024-03-22T11:30:30.888Z,57.91
2024-03-22T11:31:30.672Z,57.89
2024-03-22T11:32:30.616Z,57.79
2024-03-22T11:33:30.585Z,58.34
2024-03-22T11:34:30.718Z,58.84
2024-03-22T11:35:30.545Z,58.37
2024-03-22T11:36:30.528Z,59.67
2024-03-22T11:37:30.567Z,59.10
2024-03-22T11:38:30.556Z,59.08
2024-03-22T11:39:30.536Z,59.17
2024-03-22T11:40:30.546Z,59.58
2024-03-22T11:41:30.516Z,60.00
2024-03-22T11:42:30.581Z,60.51
2024-03-22T11:43:30.569Z,60.41
2024-03-22T11:44:30.531Z,60.51
2024-03-22T11:45:30.553Z,59.80
2024-03-22T11:46:30.493Z,60.41
2024-03-22T11:47:30.464Z,59.91
2024-03-22T11:48:31.499Z,59.78
2024-03-22T11:49:30.484Z,58.84
2024-03-22T11:50:30.463Z,59.55
2024-03-22T11:51:30.473Z,59.09
2024-03-22T11:52:30.463Z,58.31
2024-03-22T11:53:30.480Z,59.22
2024-03-22T11:54:30.533Z,59.01
2024-03-22T11:55:30.461Z,59.52
2024-03-22T11:56:30.446Z,59.25
2024-03-22T11:57:30.423Z,58.72
2024-03-22T11:58:30.443Z,59.65
2024-03-22T11:59:30.411Z,59.62
2024-03-22T12:00:44.883Z,60.94
2024-03-22T12:02:31.455Z,60.51
2024-03-22T12:03:30.411Z,60.21
2024-03-22T12:04:30.380Z,60.71
2024-03-22T12:05:30.408Z,60.41
2024-03-22T12:06:30.375Z,60.61
2024-03-22T12:07:30.420Z,61.07
2024-03-22T12:08:30.338Z,61.47
2024-03-22T12:09:30.403Z,61.37
2024-03-22T12:10:30.363Z,61.47
2024-03-22T12:11:30.333Z,61.50
2024-03-22T12:12:31.448Z,61.47
2024-03-22T12:13:30.369Z,61.14
2024-03-22T12:14:30.408Z,60.87
2024-03-22T12:15:30.656Z,61.37
2024-03-22T12:16:30.304Z,61.40
2024-03-22T12:17:30.301Z,61.40
2024-03-22T12:18:30.268Z,61.10
2024-03-22T12:19:30.285Z,61.80
2024-03-22T12:20:30.318Z,61.50
2024-03-22T12:21:30.297Z,62.91
2024-03-22T12:22:30.258Z,61.40
2024-03-22T12:23:30.347Z,61.47
2024-03-22T12:24:30.231Z,61.44
2024-03-22T12:25:30.247Z,61.65
2024-03-22T12:26:30.248Z,61.27
2024-03-22T12:27:32.994Z,60.64
2024-03-22T12:28:32.234Z,60.53
2024-03-22T12:29:30.327Z,59.80
2024-03-22T12:30:30.205Z,60.64
2024-03-22T12:31:30.200Z,60.31
2024-03-22T12:32:30.222Z,58.80
2024-03-22T12:33:30.277Z,59.27
2024-03-22T12:34:30.197Z,59.27
2024-03-22T12:35:30.180Z,59.10
2024-03-22T12:36:30.165Z,59.98
2024-03-22T12:37:30.188Z,59.41
2024-03-22T12:38:30.172Z,60.64
2024-03-22T12:39:30.184Z,60.71
2024-03-22T12:40:30.129Z,60.71
2024-03-22T12:41:30.155Z,59.94
2024-03-22T12:42:30.168Z,60.64
2024-03-22T12:43:31.936Z,61.17
2024-03-22T12:44:30.174Z,59.83
2024-03-22T12:45:30.128Z,59.70
2024-03-22T12:46:30.119Z,59.10
2024-03-22T12:47:30.135Z,60.03
2024-03-22T12:48:30.110Z,61.17
2024-03-22T12:49:30.058Z,61.37
2024-03-22T12:50:30.083Z,61.30
2024-03-22T12:51:30.096Z,61.14
2024-03-22T12:52:30.050Z,60.27
2024-03-22T12:53:30.062Z,61.07